Surface/Precipitation History
11/24/2014 18:27  to  11/25/2014 18:27
Change End Date:
Date/Time
(MST)
Sf
Temp Chem Water Layer Surface Precipitation
Sf Sub Frz Factor Pct Depth IcePct Cond Salin Type Intens Accum Rate
11/25/2014 18:25 Chemically Wet 31.3F 29F 31F 5 4% 0.10 in 0% 12 mhos 1266 Yes - - -
11/25/2014 18:18 Ice Warning 31.5F 29F 32F 5 0% - 96% 0 mhos 45 Yes - - -
11/25/2014 18:08 Ice Warning 31.6F 29F 32F 5 0% - 95% 0 mhos 45 Yes - - -
11/25/2014 17:58 Chemically Wet 31.8F 29F 31F 5 3% 0.10 in 0% 9 mhos 913 Yes - - -
11/25/2014 17:55 Chemically Wet 31.8F 29F 31F 5 3% 0.10 in 0% 9 mhos 914 Yes - - -
11/25/2014 17:48 Chemically Wet 32.0F 29F 31F 5 3% 0.10 in 0% 9 mhos 926 Yes - - -
11/25/2014 17:38 Chemically Wet 32.0F 29F 31F 5 3% 0.10 in 0% 9 mhos 972 Yes - - -
11/25/2014 17:28 Chemically Wet 32.0F 29F 30F 5 6% 0.00 in 0% 17 mhos 1793 Yes - - -
11/25/2014 17:25 Chemically Wet 32.0F 29F 30F 5 6% 0.00 in 0% 18 mhos 1882 Yes - - -
11/25/2014 17:18 Chemically Wet 32.0F 29F 29F 10 10% 0.00 in 0% 27 mhos 2987 Yes - - -
11/25/2014 17:10 Chemically Wet 32.0F 29F 28F 10 12% 0.00 in 0% 31 mhos 3502 Yes - - -
11/25/2014 17:08 Chemically Wet 32.0F 29F 28F 15 12% 0.00 in 0% 32 mhos 3637 Yes - - -
11/25/2014 16:58 Chemically Wet 32.0F 29F 27F 20 14% 0.00 in 0% 37 mhos 4300 Yes - - -
11/25/2014 16:55 Chemically Wet 32.0F 29F 27F 20 15% 0.00 in 0% 38 mhos 4472 Yes - - -
11/25/2014 16:48 Chemically Wet 32.0F 29F 26F 25 17% 0.00 in 0% 43 mhos 5225 Yes - - -
Date/Time
(MST)
Sf
Temp Chem Water Layer Surface Precipitation
Sf Sub Frz Factor Pct Depth IcePct Cond Salin Type Intens Accum Rate
11/25/2014 16:40 Chemically Wet 32.0F 28F 25F 20 20% 0.00 in 0% 48 mhos 6058 Yes - - -
11/25/2014 16:38 Chemically Wet 32.0F 28F 24F 20 21% 0.00 in 0% 50 mhos 6343 Yes - - -
11/25/2014 16:28 Chemically Wet 32.0F 28F 19F 25 30% 0.00 in 0% 63 mhos 9023 Yes - - -
11/25/2014 16:25 Chemically Wet 32.0F 28F 32F 25 0% 0.70 in 0% 0 mhos 43 Yes - - -
11/25/2014 16:18 Chemically Wet 32.0F 28F 29F 25 8% 0.10 in 0% 23 mhos 2533 Yes - - -
11/25/2014 16:10 Chemically Wet 32.0F 28F 25F 50 20% 0.00 in 0% 48 mhos 6023 Yes - - -
11/25/2014 16:08 Chemically Wet 32.0F 28F 27F 35 15% 0.00 in 0% 39 mhos 4625 Yes - - -
11/25/2014 15:58 Chemically Wet 32.0F 28F 19F 20 30% 0.00 in 0% 63 mhos 8874 Yes - - -
11/25/2014 15:55 Chemically Wet 32.0F 28F 25F 20 19% 0.00 in 0% 45 mhos 5565 Yes - - -
11/25/2014 15:48 Chemically Wet 32.0F 28F 29F 25 11% 0.00 in 0% 29 mhos 3270 Yes - - -
11/25/2014 15:40 Chemically Wet 32.0F 28F 27F 15 15% 0.00 in 0% 38 mhos 4487 Yes - - -
11/25/2014 15:38 Wet 32.2F 28F 30F 5 8% 0.00 in 0% 23 mhos 2460 Yes - - -
11/25/2014 15:28 Wet 32.4F 28F 3F 35 50% 0.00 in 0% 350 mhos 15000 Yes - - -
11/25/2014 15:25 Wet 32.5F 28F 3F 45 50% 0.00 in 0% 372 mhos 15000 Yes - - -
11/25/2014 15:18 Wet 32.4F 28F 3F 35 50% 0.00 in 0% 298 mhos 15000 None None - -
Date/Time
(MST)
Sf
Temp Chem Water Layer Surface Precipitation
Sf Sub Frz Factor Pct Depth IcePct Cond Salin Type Intens Accum Rate
11/25/2014 15:10 Wet 32.2F 28F 3F 90 50% 0.00 in 0% 282 mhos 15000 Yes - - -
11/25/2014 15:08 Wet 32.2F 28F 3F 95 50% 0.00 in 0% 346 mhos 15000 Yes - - -
11/25/2014 14:57 Wet 32.2F 28F 3F 95 50% 0.00 in 0% 346 mhos 15000 Yes - - -
11/25/2014 14:55 Wet 32.2F 28F 3F 95 50% 0.00 in 0% 309 mhos 15000 Yes - - -
11/25/2014 14:47 Wet 32.2F 28F 3F 95 50% 0.00 in 0% 328 mhos 15000 Yes - - -
11/25/2014 14:40 Wet 32.5F 28F 3F 95 50% 0.00 in 0% 347 mhos 15000 Yes - - -
11/25/2014 14:37 Wet 32.5F 28F 3F 95 50% 0.00 in 0% 328 mhos 15000 Yes - - -
11/25/2014 14:27 Wet 33.3F 28F 3F 55 50% 0.00 in 0% 597 mhos 15000 Yes - - -
11/25/2014 14:25 Wet 33.4F 28F 3F 75 50% 0.00 in 0% 497 mhos 15000 Yes - - -
11/25/2014 14:17 Wet 33.6F 28F 17F 60 33% 0.00 in 0% 68 mhos 9991 Yes - - -
11/25/2014 14:10 Wet 34.7F 28F 3F 55 50% 0.00 in 0% 313 mhos 15000 Yes - - -
11/25/2014 14:07 Wet 35.1F 28F 3F 45 50% 0.00 in 0% 331 mhos 15000 None None - -
11/25/2014 13:57 Wet 36.0F 28F 3F 70 50% 0.00 in 0% 855 mhos 15000 None None - -
11/25/2014 13:55 Wet 36.0F 28F 3F 65 50% 0.00 in 0% 855 mhos 15000 Yes - - -
11/25/2014 13:47 Wet 35.4F 28F 3F 70 50% 0.00 in 0% 855 mhos 15000 None None - -
Date/Time
(MST)
Sf
Temp Chem Water Layer Surface Precipitation
Sf Sub Frz Factor Pct Depth IcePct Cond Salin Type Intens Accum Rate
11/25/2014 13:40 Wet 34.9F 28F 3F 70 50% 0.00 in 0% 747 mhos 15000 None None - -
11/25/2014 13:37 Wet 34.5F 28F 3F 70 50% 0.00 in 0% 596 mhos 15000 None None - -
11/25/2014 13:27 Wet 33.3F 28F 3F 70 50% 0.00 in 0% 855 mhos 15000 None None - -
11/25/2014 13:26 Wet 33.3F 28F 3F 70 50% 0.00 in 0% 855 mhos 15000 None None - -
11/25/2014 13:17 Wet 32.9F 28F 3F 60 50% 0.00 in 0% 664 mhos 15000 None None - -
11/25/2014 13:07 Wet 32.2F 28F 3F 75 50% 0.00 in 0% 596 mhos 15000 Yes - - -
11/25/2014 12:57 Wet 32.5F 28F 3F 60 50% 0.00 in 0% 542 mhos 15000 None None - -
11/25/2014 12:55 Wet 32.5F 28F 3F 70 50% 0.00 in 0% 497 mhos 15000 Yes - - -
11/25/2014 12:47 Wet 32.4F 28F 3F 70 50% 0.00 in 0% 397 mhos 15000 Yes - - -
11/25/2014 12:40 Wet 32.2F 28F 3F 45 50% 0.00 in 0% 372 mhos 15000 Yes - - -
11/25/2014 12:37 Wet 32.2F 28F 3F 30 50% 0.00 in 0% 238 mhos 15000 Yes - - -
11/25/2014 12:27 Wet 32.4F 28F 3F 70 50% 0.00 in 0% 747 mhos 15000 None None - -
11/25/2014 12:25 Wet 32.5F 28F 3F 65 50% 0.00 in 0% 747 mhos 15000 None None - -
11/25/2014 12:17 Wet 32.7F 28F 3F 65 50% 0.00 in 0% 664 mhos 15000 None None - -
11/25/2014 12:10 Wet 32.2F 28F 3F 65 50% 0.00 in 0% 191 mhos 15000 None None - -
Date/Time
(MST)
Sf
Temp Chem Water Layer Surface Precipitation
Sf Sub Frz Factor Pct Depth IcePct Cond Salin Type Intens Accum Rate
11/25/2014 12:07 Chemically Wet 31.8F 28F 23F 45 24% 0.00 in 0% 54 mhos 7142 Yes - - -
11/25/2014 11:57 Chemically Wet 31.1F 28F 25F 30 20% 0.00 in 0% 47 mhos 5938 Yes - - -
11/25/2014 11:55 Chemically Wet 31.3F 28F 25F 30 20% 0.00 in 0% 48 mhos 6046 Yes - - -
11/25/2014 11:47 Chemically Wet 31.1F 28F 24F 40 22% 0.00 in 0% 50 mhos 6467 Yes - - -
11/25/2014 11:40 Chemically Wet 30.6F 28F 25F 30 19% 0.00 in 0% 45 mhos 5608 None None - -
11/25/2014 11:36 Chemically Wet 30.9F 28F 26F 30 17% 0.00 in 0% 42 mhos 5159 Yes - - -
11/25/2014 11:26 Chemically Wet 31.8F 28F 25F 35 19% 0.00 in 0% 46 mhos 5698 None None - -
11/25/2014 11:25 Chemically Wet 31.6F 28F 26F 40 18% 0.00 in 0% 43 mhos 5261 Yes - - -
11/25/2014 11:16 Chemically Wet 31.8F 28F 28F 15 13% 0.00 in 0% 34 mhos 3892 None None - -
11/25/2014 11:10 Chemically Wet 31.6F 28F 30F 5 7% 0.70 in 0% 21 mhos 2233 None None - -
11/25/2014 11:06 Chemically Wet 31.8F 28F 30F 15 6% 0.10 in 0% 18 mhos 1935 None None - -
11/25/2014 10:56 Chemically Wet 31.8F 28F 30F 30 7% 0.10 in 0% 20 mhos 2211 None None - -
11/25/2014 10:55 Wet 32.2F 28F 30F 30 7% 0.10 in 0% 21 mhos 2246 None None - -
11/25/2014 10:46 Chemically Wet 31.3F 28F 30F 20 8% 0.10 in 0% 21 mhos 2340 None None - -
11/25/2014 10:40 Chemically Wet 31.1F 28F 29F 15 9% 0.00 in 0% 24 mhos 2702 None None - -
Date/Time
(MST)
Sf
Temp Chem Water Layer Surface Precipitation
Sf Sub Frz Factor Pct Depth IcePct Cond Salin Type Intens Accum Rate
11/25/2014 10:36 Chemically Wet 30.9F 28F 29F 10 10% 0.00 in 0% 26 mhos 2912 None None - -
11/25/2014 10:26 Chemically Wet 30.2F 28F 29F 5 11% 0.70 in 0% 29 mhos 3291 None None - -
11/25/2014 10:25 Chemically Wet 30.2F 28F 29F 5 11% 0.70 in 0% 29 mhos 3329 None None - -
11/25/2014 10:16 Chemically Wet 28.6F 28F 28F 5 12% 0.70 in 0% 30 mhos 3605 None None - -
11/25/2014 10:10 Chemically Wet 28.4F 28F 28F 5 13% 0.70 in 0% 32 mhos 3827 None None - -
11/25/2014 10:06 Chemically Wet 28.0F 28F 28F 5 13% 0.80 in 0% 33 mhos 3977 None None - -
11/25/2014 09:56 Chemically Wet 27.0F 28F 27F 5 15% - 51% 34 mhos 4390 None None - -
11/25/2014 09:55 Chemically Wet 26.8F 28F 27F 5 15% - 52% 34 mhos 4435 None None - -
11/25/2014 09:46 Chemically Wet 26.1F 28F 27F 5 16% - 54% 35 mhos 4740 None None - -
11/25/2014 09:40 Chemically Wet 25.9F 28F 27F 5 16% - 55% 34 mhos 4713 None None - -
11/25/2014 09:36 Chemically Wet 25.5F 28F 27F 5 16% - 57% 34 mhos 4773 None None - -
11/25/2014 09:26 Chemically Wet 25.2F 28F 26F 5 16% - 57% 34 mhos 4906 None None - -
11/25/2014 09:25 Chemically Wet 25.0F 28F 26F 5 17% - 57% 34 mhos 4978 None None - -
11/25/2014 09:16 Chemically Wet 24.6F 28F 26F 5 17% - 57% 35 mhos 5145 None None - -
11/25/2014 09:10 Chemically Wet 24.4F 28F 26F 5 18% - 57% 35 mhos 5277 None None - -
Date/Time
(MST)
Sf
Temp Chem Water Layer Surface Precipitation
Sf Sub Frz Factor Pct Depth IcePct Cond Salin Type Intens Accum Rate
11/25/2014 09:06 Chemically Wet 24.3F 28F 26F 5 18% - 57% 35 mhos 5327 None None - -
11/25/2014 08:56 Chemically Wet 23.7F 28F 25F 5 19% - 57% 37 mhos 5719 None None - -
11/25/2014 08:55 Chemically Wet 23.7F 28F 25F 5 19% - 57% 37 mhos 5683 None None - -
11/25/2014 08:46 Chemically Wet 23.4F 28F 25F 5 19% - 56% 37 mhos 5840 None None - -
11/25/2014 08:40 Chemically Wet 23.4F 28F 25F 5 20% - 56% 38 mhos 5920 None None - -
11/25/2014 08:36 Chemically Wet 23.2F 28F 25F 5 20% - 57% 38 mhos 5973 None None - -
11/25/2014 08:26 Chemically Wet 22.8F 28F 24F 5 20% - 57% 38 mhos 6133 None None - -
11/25/2014 08:25 Chemically Wet 22.8F 28F 24F 5 20% - 57% 38 mhos 6133 None None - -
11/25/2014 08:16 Chemically Wet 22.5F 28F 24F 5 21% - 57% 38 mhos 6242 None None - -
11/25/2014 08:10 Chemically Wet 22.5F 28F 24F 5 21% - 57% 38 mhos 6270 None None - -
11/25/2014 08:05 Chemically Wet 22.3F 28F 24F 5 21% - 57% 38 mhos 6363 None None - -
11/25/2014 07:55 Chemically Wet 22.5F 28F 24F 5 21% - 56% 39 mhos 6336 None None - -
11/25/2014 07:55 Chemically Wet 22.5F 28F 24F 5 21% - 56% 39 mhos 6336 None None - -
11/25/2014 07:45 Chemically Wet 22.3F 28F 24F 5 21% - 57% 39 mhos 6409 None None - -
11/25/2014 07:40 Chemically Wet 22.1F 28F 24F 5 22% - 56% 39 mhos 6475 None None - -
Date/Time
(MST)
Sf
Temp Chem Water Layer Surface Precipitation
Sf Sub Frz Factor Pct Depth IcePct Cond Salin Type Intens Accum Rate
11/25/2014 07:35 Chemically Wet 22.1F 28F 24F 5 22% - 56% 39 mhos 6475 None None - -
11/25/2014 07:25 Chemically Wet 22.3F 28F 24F 5 21% - 56% 39 mhos 6437 None None - -
11/25/2014 07:25 Chemically Wet 22.3F 28F 24F 5 21% - 56% 39 mhos 6437 None None - -
11/25/2014 07:15 Chemically Wet 22.3F 28F 24F 5 21% - 56% 39 mhos 6441 None None - -
11/25/2014 07:05 Chemically Wet 22.3F 28F 24F 5 22% - 56% 40 mhos 6540 None None - -
11/25/2014 06:55 Chemically Wet 22.3F 29F 24F 5 22% - 55% 40 mhos 6586 None None - -
11/25/2014 06:55 Chemically Wet 22.3F 28F 24F 5 22% - 55% 40 mhos 6586 None None - -
11/25/2014 06:45 Chemically Wet 21.9F 29F 23F 5 22% - 55% 41 mhos 6712 None None - -
11/25/2014 06:35 Chemically Wet 22.1F 28F 23F 5 22% - 55% 41 mhos 6734 None None - -
11/25/2014 06:25 Chemically Wet 21.9F 29F 23F 5 23% - 55% 42 mhos 6837 None None - -
11/25/2014 06:25 Chemically Wet 22.1F 29F 23F 5 23% - 54% 42 mhos 6797 None None - -
11/25/2014 06:15 Chemically Wet 22.1F 29F 23F 5 23% - 54% 42 mhos 6860 None None - -
11/25/2014 06:05 Chemically Wet 21.7F 29F 23F 5 23% - 54% 43 mhos 7022 None None - -
11/25/2014 05:55 Chemically Wet 21.9F 29F 23F 5 23% - 53% 44 mhos 7047 None None - -
11/25/2014 05:55 Chemically Wet 21.9F 29F 23F 5 23% - 53% 44 mhos 7047 None None - -
Date/Time
(MST)
Sf
Temp Chem Water Layer Surface Precipitation
Sf Sub Frz Factor Pct Depth IcePct Cond Salin Type Intens Accum Rate
11/25/2014 05:45 Chemically Wet 21.6F 29F 22F 5 24% - 53% 45 mhos 7246 None None - -
11/25/2014 05:35 Chemically Wet 21.6F 29F 22F 5 24% - 52% 45 mhos 7315 None None - -
11/25/2014 05:25 Chemically Wet 21.7F 29F 22F 10 25% - 52% 46 mhos 7379 None None - -
11/25/2014 05:25 Chemically Wet 21.7F 29F 22F 10 25% - 52% 46 mhos 7379 None None - -
11/25/2014 05:15 Chemically Wet 21.6F 29F 22F 10 25% - 51% 47 mhos 7588 None None - -
11/25/2014 05:05 Chemically Wet 21.6F 29F 22F 15 25% - 51% 48 mhos 7563 None None - -
11/25/2014 04:56 Chemically Wet 21.7F 29F 22F 15 25% - 50% 48 mhos 7558 None None - -
11/25/2014 04:55 Chemically Wet 21.6F 29F 22F 15 26% - 50% 49 mhos 7656 None None - -
11/25/2014 04:45 Chemically Wet 21.6F 29F 22F 15 26% - 50% 49 mhos 7697 None None - -
11/25/2014 04:34 Chemically Wet 21.6F 29F 22F 15 26% - 50% 49 mhos 7696 None None - -
11/25/2014 04:26 Chemically Wet 21.4F 29F 22F 15 26% - 50% 49 mhos 7715 None None - -
11/25/2014 04:24 Chemically Wet 21.6F 29F 22F 15 26% - 50% 49 mhos 7655 None None - -
11/25/2014 04:14 Chemically Wet 21.4F 29F 22F 15 26% - 50% 49 mhos 7715 None None - -
11/25/2014 04:04 Chemically Wet 21.2F 29F 21F 15 26% - 51% 49 mhos 7816 None None - -
11/25/2014 03:55 Chemically Wet 21.2F 29F 21F 15 26% - 51% 48 mhos 7795 None None - -
Date/Time
(MST)
Sf
Temp Chem Water Layer Surface Precipitation
Sf Sub Frz Factor Pct Depth IcePct Cond Salin Type Intens Accum Rate
11/25/2014 03:54 Chemically Wet 21.4F 29F 22F 15 26% - 51% 48 mhos 7735 None None - -
11/25/2014 03:44 Chemically Wet 21.0F 29F 21F 15 26% - 52% 47 mhos 7778 None None - -
11/25/2014 03:34 Chemically Wet 20.8F 29F 21F 15 26% - 52% 47 mhos 7763 None None - -
11/25/2014 03:25 Chemically Wet 20.8F 29F 22F 15 26% - 52% 47 mhos 7763 None None - -
11/25/2014 03:24 Chemically Wet 20.8F 29F 21F 15 26% - 52% 47 mhos 7763 None None - -
11/25/2014 03:14 Chemically Wet 21.2F 29F 22F 15 26% - 51% 47 mhos 7719 None None - -
11/25/2014 03:04 Chemically Wet 21.4F 29F 22F 15 26% - 51% 47 mhos 7659 None None - -
11/25/2014 02:55 Chemically Wet 21.4F 29F 22F 15 25% - 51% 47 mhos 7639 None None - -
11/25/2014 02:54 Chemically Wet 21.4F 29F 22F 15 25% - 51% 47 mhos 7638 None None - -
11/25/2014 02:44 Chemically Wet 21.6F 29F 22F 15 25% - 51% 48 mhos 7616 None None - -
11/25/2014 02:34 Chemically Wet 21.7F 29F 22F 20 25% - 51% 48 mhos 7495 None None - -
11/25/2014 02:25 Chemically Wet 22.1F 29F 22F 20 25% - 50% 48 mhos 7396 None None - -
11/25/2014 02:24 Chemically Wet 22.1F 29F 22F 20 25% - 50% 48 mhos 7396 None None - -
11/25/2014 02:14 Chemically Wet 22.1F 29F 22F 20 24% - 51% 47 mhos 7318 None None - -
11/25/2014 02:04 Chemically Wet 21.9F 29F 22F 20 24% - 51% 46 mhos 7322 None None - -
Date/Time
(MST)
Sf
Temp Chem Water Layer Surface Precipitation
Sf Sub Frz Factor Pct Depth IcePct Cond Salin Type Intens Accum Rate
11/25/2014 01:55 Chemically Wet 22.3F 29F 23F 20 24% - 52% 46 mhos 7149 Yes - - -
11/25/2014 01:54 Chemically Wet 22.3F 29F 23F 20 24% - 52% 46 mhos 7149 None None - -
11/25/2014 01:44 Chemically Wet 22.1F 29F 23F 20 24% - 52% 45 mhos 7118 None None - -
11/25/2014 01:34 Chemically Wet 22.3F 29F 23F 20 23% - 52% 44 mhos 6951 Yes - - -
11/25/2014 01:25 Chemically Wet 22.5F 29F 23F 20 23% - 53% 43 mhos 6791 None None - -
11/25/2014 01:24 Chemically Wet 22.5F 29F 23F 20 23% - 53% 43 mhos 6757 None None - -
11/25/2014 01:13 Chemically Wet 22.5F 29F 24F 20 22% - 55% 41 mhos 6533 Yes - - -
11/25/2014 01:03 Chemically Wet 22.5F 29F 24F 20 21% - 57% 37 mhos 6154 Yes - - -
11/25/2014 00:55 Ice Watch 22.5F 29F - 20 - - - 34 mhos 5824 None None - -
11/25/2014 00:53 Ice Watch 22.5F 29F - 20 - - - 33 mhos 5667 None None - -
11/25/2014 00:43 Ice Watch 22.5F 29F - 15 - - - 29 mhos 5162 None None - -
11/25/2014 00:33 Ice Watch 22.6F 29F - 15 - - - 26 mhos 4646 None None - -
11/25/2014 00:25 Ice Watch 22.6F 29F - 15 - - - 24 mhos 4321 None None - -
11/25/2014 00:23 Ice Watch 22.5F 29F - 15 - - - 23 mhos 4280 None None - -
11/25/2014 00:13 Ice Watch 22.6F 29F - 15 - - - 21 mhos 3948 None None - -
Date/Time
(MST)
Sf
Temp Chem Water Layer Surface Precipitation
Sf Sub Frz Factor Pct Depth IcePct Cond Salin Type Intens Accum Rate
11/25/2014 00:03 Ice Watch 22.8F 29F - 15 - - - 19 mhos 3604 None None - -
11/24/2014 23:57 Ice Watch 22.8F 29F - 15 - - - 17 mhos 3213 None None - -
11/24/2014 23:53 Ice Watch 22.6F 29F - 15 - - - 15 mhos 2890 None None - -
11/24/2014 23:43 Ice Watch 22.8F 29F - 15 - - - 12 mhos 2331 None None - -
11/24/2014 23:33 Ice Watch 22.8F 29F - 10 - - - 9 mhos 1744 None None - -
11/24/2014 23:26 Ice Watch 22.8F 29F - 10 - - - 7 mhos 1348 None None - -
11/24/2014 23:23 Ice Watch 22.6F 29F - 10 - - - 6 mhos 1268 None None - -
11/24/2014 23:13 Ice Watch 22.8F 29F - 5 - - - 5 mhos 968 None None - -
11/24/2014 23:03 Ice Watch 22.8F 29F - 5 - - - 4 mhos 771 None None - -
11/24/2014 22:56 Ice Watch 22.8F 29F - 5 - - - 3 mhos 735 None None - -
11/24/2014 22:53 Ice Watch 23.0F 29F - 5 - - - 3 mhos 713 None None - -
11/24/2014 22:43 Ice Watch 23.2F 29F - 5 - - - 3 mhos 680 None None - -
11/24/2014 22:33 Ice Watch 23.4F 29F - 5 - - - 3 mhos 633 None None - -
11/24/2014 22:25 Ice Watch 23.2F 29F - 5 - - - 3 mhos 621 None None - -
11/24/2014 22:23 Ice Watch 23.4F 29F - 5 - - - 3 mhos 603 None None - -
Date/Time
(MST)
Sf
Temp Chem Water Layer Surface Precipitation
Sf Sub Frz Factor Pct Depth IcePct Cond Salin Type Intens Accum Rate
11/24/2014 22:13 Ice Watch 23.5F 29F - 5 - - - 3 mhos 588 None None - -
11/24/2014 22:03 Ice Watch 23.5F 29F - 5 - - - 3 mhos 581 None None - -
11/24/2014 21:55 Ice Watch 23.4F 29F - 5 - - - 3 mhos 586 None None - -
11/24/2014 21:53 Ice Watch 23.5F 29F - 5 - - - 3 mhos 578 None None - -
11/24/2014 21:42 Ice Watch 23.5F 29F - 5 - - - 3 mhos 582 None None - -
11/24/2014 21:32 Ice Watch 23.7F 29F - 30 - - - 3 mhos 613 None None - -
11/24/2014 21:25 Ice Watch 23.7F 29F - 45 - - - 3 mhos 621 None None - -
11/24/2014 21:22 Ice Watch 23.7F 29F - 55 - - - 3 mhos 624 None None - -
11/24/2014 21:12 Ice Watch 23.9F 29F - 95 - - - 4 mhos 698 None None - -
11/24/2014 21:02 Dry 23.9F 29F - - - - - 4 mhos 783 None None - -
11/24/2014 20:55 Dry 24.1F 29F - - - - - 4 mhos 792 None None - -
11/24/2014 20:52 Dry 23.9F 29F - - - - - 4 mhos 835 None None - -
11/24/2014 20:42 Dry 24.1F 29F - - - - - 5 mhos 861 None None - -
11/24/2014 20:32 Dry 24.6F 29F - - - - - 5 mhos 869 None None - -
11/24/2014 20:25 Dry 24.6F 29F - - - - - 5 mhos 876 None None - -
Date/Time
(MST)
Sf
Temp Chem Water Layer Surface Precipitation
Sf Sub Frz Factor Pct Depth IcePct Cond Salin Type Intens Accum Rate
11/24/2014 20:22 Dry 24.8F 29F - - - - - 5 mhos 845 None None - -
11/24/2014 20:12 Dry 25.2F 29F - - - - - 5 mhos 854 None None - -
11/24/2014 20:02 Dry 25.0F 29F - - - - - 5 mhos 901 None None - -
11/24/2014 19:55 Dry 24.8F 29F - - - - - 5 mhos 892 None None - -
11/24/2014 19:52 Dry 24.8F 29F - - - - - 5 mhos 890 None None - -
11/24/2014 19:42 Dry 24.6F 29F - - - - - 5 mhos 918 None None - -
11/24/2014 19:32 Dry 25.2F 29F - - - - - 5 mhos 896 None None - -
11/24/2014 19:25 Dry 25.2F 29F - - - - - 5 mhos 808 None None - -
11/24/2014 19:22 Dry 25.2F 29F - - - - - 5 mhos 940 None None - -
11/24/2014 19:12 Dry 25.5F 29F - - - - - 6 mhos 953 None None - -
11/24/2014 19:02 Dry 25.9F 29F - - - - - 6 mhos 930 None None - -
11/24/2014 18:55 Dry 26.1F 29F - - - - - 6 mhos 910 None None - -
11/24/2014 18:52 Dry 26.1F 29F - - - - - 6 mhos 898 None None - -
11/24/2014 18:42 Dry 27.0F 29F - - - - - 6 mhos 868 None None - -
11/24/2014 18:32 Dry 27.1F 29F - - - - - 6 mhos 879 None None - -
Change End Date:
Copyright © 1998-2005 Surface Systems, Inc.
All Rights Reserved
Send comments about the data to:
SCAN Web ® is a registered trademark of Surface Systems, Inc.
SCAN Web Version 5.6